Time;durP1;ratioP1;P1;durP2;ratioP2;P2;SDS_P1;SDS_P2;PMS_P1;PMS_P2;Temp;Humidity;BMP_temperature;BMP_pressure;BME280_temperature;BME280_humidity;BME280_pressure;Samples;Min_cycle;Max_cycle;Signal;HPM_P1;HPM_P2
2022/07/25 00:01:24;;;;;;;4.80;4.40;;;27.10;91.50;;;;;;1916824;75;21124;-74
2022/07/25 00:04:16;;;;;;;6.72;4.50;;;27.20;91.50;;;;;;1905832;74;21184;-74
2022/07/25 00:07:08;;;;;;;6.05;4.10;;;27.30;90.80;;;;;;1939510;73;21161;-74
2022/07/25 00:09:59;;;;;;;5.00;4.53;;;27.30;90.50;;;;;;1916901;75;21107;-74
2022/07/25 00:12:51;;;;;;;6.28;4.62;;;27.30;90.50;;;;;;1925472;74;21119;-75
2022/07/25 00:15:42;;;;;;;4.92;4.50;;;27.30;90.60;;;;;;1904604;75;21213;-74
2022/07/25 00:18:34;;;;;;;5.08;4.67;;;27.20;90.70;;;;;;1916540;74;21572;-74
2022/07/25 00:21:25;;;;;;;4.47;4.08;;;27.10;91.00;;;;;;1908630;74;21164;-74
2022/07/25 00:24:16;;;;;;;5.08;4.67;;;27.00;91.20;;;;;;1927544;73;21107;-75
2022/07/25 00:27:07;;;;;;;4.67;4.28;;;26.80;91.30;;;;;;1917101;75;21186;-75
2022/07/25 00:29:59;;;;;;;4.35;4.00;;;26.60;91.70;;;;;;1916942;75;21055;-74
2022/07/25 00:32:51;;;;;;;4.78;4.25;;;26.50;91.90;;;;;;1917333;73;21554;-75
2022/07/25 00:35:42;;;;;;;4.70;4.30;;;26.40;91.90;;;;;;1917011;75;21059;-74
2022/07/25 00:38:34;;;;;;;4.75;4.35;;;26.40;92.10;;;;;;1916577;75;21055;-74
2022/07/25 00:41:25;;;;;;;5.35;4.15;;;26.40;92.30;;;;;;1917061;75;21173;-74
2022/07/25 00:44:25;;;;;;;5.25;4.58;;;26.40;92.60;;;;;;1916973;75;21185;-74
2022/07/25 00:47:16;;;;;;;4.67;4.25;;;26.30;93.00;;;;;;1916876;75;21043;-74
2022/07/25 00:50:09;;;;;;;4.97;4.58;;;26.30;92.80;;;;;;1916902;75;21059;-74
2022/07/25 00:53:00;;;;;;;5.35;4.30;;;26.20;93.20;;;;;;1917188;75;21056;-74
2022/07/25 00:55:52;;;;;;;5.05;4.55;;;26.20;93.20;;;;;;1917244;75;21051;-74
2022/07/25 00:58:44;;;;;;;4.90;4.10;;;26.20;93.50;;;;;;1917044;75;21158;-74
2022/07/25 01:01:36;;;;;;;4.83;4.42;;;26.00;93.70;;;;;;1916960;75;21117;-74
2022/07/25 01:04:29;;;;;;;4.87;4.10;;;26.00;93.90;;;;;;1917119;75;21180;-74
2022/07/25 01:07:21;;;;;;;5.05;4.33;;;26.10;93.70;;;;;;1917167;75;21176;-74
2022/07/25 01:10:12;;;;;;;4.92;4.42;;;26.10;94.00;;;;;;1917121;75;21208;-74
2022/07/25 01:13:03;;;;;;;5.37;4.60;;;26.10;94.70;;;;;;1920699;73;21511;-74
2022/07/25 01:15:54;;;;;;;8.13;4.37;;;26.00;94.90;;;;;;1930305;73;21539;-74
2022/07/25 01:18:46;;;;;;;4.87;4.47;;;26.00;95.20;;;;;;1931812;73;21185;-74
2022/07/25 01:21:39;;;;;;;5.50;4.67;;;25.90;95.70;;;;;;1917013;75;21110;-74
2022/07/25 01:24:30;;;;;;;5.47;4.97;;;25.90;96.10;;;;;;1917046;75;21102;-74
2022/07/25 01:27:22;;;;;;;5.05;4.65;;;25.60;96.60;;;;;;1905828;75;21111;-74
2022/07/25 01:30:15;;;;;;;5.20;4.70;;;25.40;98.60;;;;;;1917247;75;21217;-74
2022/07/25 01:33:06;;;;;;;5.80;4.90;;;25.40;98.80;;;;;;1916858;75;21106;-74
2022/07/25 01:35:58;;;;;;;6.00;4.90;;;25.40;99.00;;;;;;1916736;75;21045;-74
2022/07/25 01:38:49;;;;;;;5.22;4.72;;;25.60;99.10;;;;;;1916925;75;21100;-74
2022/07/25 01:41:43;;;;;;;6.15;5.00;;;25.60;99.10;;;;;;1904619;75;21055;-74
2022/07/25 01:44:34;;;;;;;6.00;5.40;;;25.60;99.40;;;;;;1916833;75;21051;-74
2022/07/25 01:47:26;;;;;;;5.20;4.80;;;25.50;99.90;;;;;;1916885;75;21046;-74
2022/07/25 01:50:17;;;;;;;5.83;4.80;;;25.50;99.90;;;;;;1916828;75;21163;-74
2022/07/25 01:53:09;;;;;;;5.53;4.97;;;25.50;99.90;;;;;;1936569;73;21142;-74
2022/07/25 01:56:00;;;;;;;5.90;5.03;;;25.50;99.90;;;;;;1930999;73;21059;-74
2022/07/25 01:58:53;;;;;;;5.50;5.00;;;25.60;99.90;;;;;;1919102;73;21095;-74
2022/07/25 02:01:44;;;;;;;5.65;4.90;;;25.60;99.90;;;;;;1920511;73;21171;-74
2022/07/25 02:04:37;;;;;;;5.83;5.03;;;25.70;99.90;;;;;;1930108;73;21090;-74
2022/07/25 02:07:29;;;;;;;6.35;4.60;;;25.70;99.90;;;;;;1920451;74;21092;-74
2022/07/25 02:10:20;;;;;;;5.47;4.90;;;25.40;99.90;;;;;;1905253;74;21063;-74
2022/07/25 02:13:12;;;;;;;6.40;4.28;;;25.40;99.90;;;;;;1904808;75;21048;-74
2022/07/25 02:16:03;;;;;;;5.60;4.87;;;25.30;99.90;;;;;;1917019;75;21097;-74
2022/07/25 02:18:54;;;;;;;5.20;4.70;;;25.20;99.90;;;;;;1917085;75;21154;-74
2022/07/25 02:21:45;;;;;;;5.97;4.62;;;25.20;99.90;;;;;;1916401;74;21142;-74
2022/07/25 02:24:37;;;;;;;6.28;4.78;;;25.10;99.90;;;;;;1909083;74;21075;-74
2022/07/25 02:27:29;;;;;;;5.50;4.95;;;25.20;99.90;;;;;;1911369;75;21234;-74
2022/07/25 02:30:20;;;;;;;5.10;4.37;;;25.10;99.90;;;;;;1916837;75;21093;-74
2022/07/25 02:33:12;;;;;;;5.25;4.58;;;25.20;99.90;;;;;;1929321;73;21497;-74
2022/07/25 02:36:03;;;;;;;5.12;4.60;;;25.30;99.90;;;;;;1921011;73;21055;-74
2022/07/25 02:38:54;;;;;;;4.95;4.45;;;25.20;99.90;;;;;;1916870;75;21124;-74
2022/07/25 02:41:46;;;;;;;6.22;4.95;;;25.10;99.90;;;;;;1916970;75;21070;-74
2022/07/25 02:44:38;;;;;;;4.70;4.30;;;25.10;99.90;;;;;;1916932;75;21115;-75
2022/07/25 02:47:29;;;;;;;6.05;4.97;;;25.10;99.90;;;;;;1916837;75;21100;-74
2022/07/25 02:50:20;;;;;;;5.45;4.37;;;25.10;99.90;;;;;;1916983;75;21046;-74
2022/07/25 02:53:12;;;;;;;5.00;4.50;;;25.10;99.90;;;;;;1916917;75;21553;-74
2022/07/25 02:56:03;;;;;;;4.55;4.15;;;24.90;99.90;;;;;;1917110;75;21094;-74
2022/07/25 02:58:56;;;;;;;5.12;4.47;;;24.90;99.90;;;;;;1916970;75;21571;-74
2022/07/25 03:01:47;;;;;;;6.08;4.62;;;25.00;99.90;;;;;;1916810;75;21058;-74
2022/07/25 03:04:38;;;;;;;4.85;4.45;;;24.90;99.90;;;;;;1917230;75;21378;-74
2022/07/25 03:07:29;;;;;;;5.05;4.55;;;24.90;99.90;;;;;;1916985;75;21052;-74
2022/07/25 03:10:21;;;;;;;5.10;4.42;;;24.90;99.90;;;;;;1926860;73;21058;-74
2022/07/25 03:13:11;;;;;;;4.78;4.35;;;24.90;99.90;;;;;;1927906;73;21054;-74
2022/07/25 03:16:02;;;;;;;4.67;4.20;;;24.90;99.90;;;;;;1929377;73;21132;-74
2022/07/25 03:18:54;;;;;;;4.75;4.37;;;24.90;99.90;;;;;;1933604;73;21108;-74
2022/07/25 03:21:45;;;;;;;4.95;4.47;;;24.80;99.90;;;;;;1916903;73;21131;-74
2022/07/25 03:24:36;;;;;;;5.08;4.58;;;24.80;99.90;;;;;;1916898;75;21050;-74
2022/07/25 03:27:28;;;;;;;5.58;4.45;;;24.80;99.90;;;;;;1917021;75;21074;-74
2022/07/25 03:30:19;;;;;;;5.50;4.87;;;24.80;99.90;;;;;;1916801;75;21117;-74
2022/07/25 03:33:10;;;;;;;4.95;4.45;;;24.80;99.90;;;;;;1929287;73;21094;-74
2022/07/25 03:36:02;;;;;;;4.92;4.42;;;24.70;99.90;;;;;;1920826;73;21039;-75
2022/07/25 03:38:55;;;;;;;6.12;5.30;;;24.60;99.90;;;;;;1918818;73;21564;-74
2022/07/25 03:41:46;;;;;;;8.68;4.75;;;24.60;99.90;;;;;;1931466;73;21553;-74
2022/07/25 03:44:38;;;;;;;5.20;4.80;;;24.70;99.90;;;;;;1917060;75;21083;-74
2022/07/25 03:47:29;;;;;;;5.72;4.85;;;24.60;99.90;;;;;;1916810;75;21603;-75
2022/07/25 03:50:21;;;;;;;5.00;4.50;;;24.50;99.90;;;;;;1916929;75;21074;-74
2022/07/25 03:53:12;;;;;;;5.85;5.35;;;24.50;99.90;;;;;;1916830;75;21109;-75
2022/07/25 03:56:03;;;;;;;5.42;4.90;;;24.50;99.90;;;;;;1916984;75;21080;-75
2022/07/25 03:58:54;;;;;;;5.20;4.80;;;24.50;99.90;;;;;;1916985;75;21076;-74
2022/07/25 04:01:47;;;;;;;6.90;5.10;;;24.50;99.90;;;;;;1916692;75;21577;-74
2022/07/25 04:04:39;;;;;;;6.47;4.87;;;24.40;99.90;;;;;;1916947;75;21125;-74
2022/07/25 04:07:30;;;;;;;5.60;5.08;;;24.40;99.90;;;;;;1916938;75;21109;-74
2022/07/25 04:10:22;;;;;;;5.42;4.92;;;24.50;99.90;;;;;;1916815;75;21051;-74
2022/07/25 04:13:12;;;;;;;5.33;4.83;;;24.50;99.90;;;;;;1916463;75;21152;-75
2022/07/25 04:16:05;;;;;;;5.33;4.83;;;24.60;99.90;;;;;;1941807;73;21142;-76
2022/07/25 04:18:57;;;;;;;5.33;4.80;;;24.70;99.90;;;;;;1930776;73;21064;-74
2022/07/25 04:21:50;;;;;;;5.28;4.75;;;24.80;99.90;;;;;;1917002;75;21101;-76
2022/07/25 04:24:42;;;;;;;5.25;4.70;;;24.90;99.90;;;;;;1917010;75;21142;-76
2022/07/25 04:27:33;;;;;;;5.92;4.90;;;24.90;99.90;;;;;;1917038;75;21620;-75
2022/07/25 04:30:24;;;;;;;5.20;4.70;;;24.90;99.90;;;;;;1905128;75;21614;-75
2022/07/25 04:33:16;;;;;;;5.60;5.10;;;24.60;99.90;;;;;;1904430;75;21095;-75
2022/07/25 04:36:08;;;;;;;5.50;4.92;;;24.30;99.90;;;;;;1904487;75;21106;-75
2022/07/25 04:39:00;;;;;;;5.62;5.03;;;24.40;99.90;;;;;;1904264;75;21100;-74
2022/07/25 04:41:52;;;;;;;5.53;4.97;;;24.50;99.90;;;;;;1904539;75;21146;-75
2022/07/25 04:44:43;;;;;;;5.30;4.90;;;24.50;99.90;;;;;;1869126;77;21200;-82
2022/07/25 04:47:35;;;;;;;5.47;5.03;;;24.60;99.90;;;;;;1859271;77;21149;-75
2022/07/25 04:50:28;;;;;;;7.40;5.10;;;24.60;99.90;;;;;;1869753;77;21091;-79
2022/07/25 04:53:19;;;;;;;6.33;4.67;;;24.60;99.90;;;;;;1867817;77;21223;-75
2022/07/25 04:56:13;;;;;;;7.55;5.22;;;24.70;99.90;;;;;;1869328;77;21184;-76
2022/07/25 04:59:05;;;;;;;5.90;5.22;;;24.70;99.90;;;;;;1878608;75;21107;-76
2022/07/25 05:01:57;;;;;;;5.58;4.70;;;24.70;99.90;;;;;;1872260;75;21113;-76
2022/07/25 05:04:48;;;;;;;7.70;4.65;;;24.80;99.90;;;;;;1869816;77;21130;-76
2022/07/25 05:07:41;;;;;;;6.50;5.08;;;24.90;99.90;;;;;;1869521;77;21099;-76
2022/07/25 05:10:33;;;;;;;5.90;5.30;;;24.90;99.90;;;;;;1869746;77;21146;-75
2022/07/25 05:13:25;;;;;;;6.60;5.62;;;24.90;99.90;;;;;;1889520;75;21154;-75
2022/07/25 05:16:16;;;;;;;8.00;5.60;;;24.90;99.90;;;;;;1867878;77;21142;-75
2022/07/25 05:19:08;;;;;;;5.47;4.80;;;24.90;99.90;;;;;;1870902;77;21157;-75
2022/07/25 05:21:59;;;;;;;8.25;5.80;;;24.90;99.90;;;;;;1868933;77;21095;-75
2022/07/25 05:24:51;;;;;;;6.70;5.42;;;24.90;99.90;;;;;;1868877;77;21180;-82
2022/07/25 05:27:43;;;;;;;6.65;5.80;;;25.00;99.90;;;;;;1868891;77;21111;-79
2022/07/25 05:30:34;;;;;;;6.87;5.10;;;25.00;99.90;;;;;;1883237;76;21087;-77
2022/07/25 05:33:27;;;;;;;6.15;5.37;;;25.10;99.90;;;;;;1932793;74;21117;-76
2022/07/25 05:36:18;;;;;;;7.20;6.30;;;25.20;99.90;;;;;;1933193;74;21097;-78
2022/07/25 05:39:10;;;;;;;7.83;5.58;;;25.30;99.90;;;;;;1938035;73;21477;-77
2022/07/25 05:42:02;;;;;;;7.70;5.62;;;25.30;99.90;;;;;;1944107;73;21089;-77
2022/07/25 05:44:53;;;;;;;5.85;5.25;;;25.30;99.90;;;;;;1950056;73;21514;-77
2022/07/25 05:47:45;;;;;;;6.00;5.40;;;25.30;99.90;;;;;;1951597;73;21066;-77
2022/07/25 05:50:38;;;;;;;6.50;5.85;;;25.30;99.90;;;;;;1932702;73;21049;-78
2022/07/25 05:53:30;;;;;;;6.97;5.17;;;25.40;99.90;;;;;;1932627;74;21109;-78
2022/07/25 05:56:22;;;;;;;8.25;5.22;;;25.50;99.90;;;;;;1932662;74;21223;-78
2022/07/25 05:59:13;;;;;;;6.08;5.42;;;25.60;99.90;;;;;;1889270;76;21129;-78
2022/07/25 06:02:05;;;;;;;5.72;5.10;;;25.60;99.90;;;;;;1946315;73;21608;-77
2022/07/25 06:04:57;;;;;;;7.53;5.28;;;25.70;99.90;;;;;;1940079;73;21241;-77
2022/07/25 06:10:26;;;;;;;5.60;5.10;;;25.80;99.90;;;;;;1934804;72;22736;-78
2022/07/25 06:13:18;;;;;;;6.03;5.42;;;25.90;99.90;;;;;;1905891;75;21103;-77
2022/07/25 06:16:10;;;;;;;6.87;6.17;;;25.90;99.90;;;;;;1888710;75;21090;-77
2022/07/25 06:19:02;;;;;;;6.17;5.58;;;25.90;99.90;;;;;;1903110;75;21063;-77
2022/07/25 06:21:53;;;;;;;8.75;5.75;;;25.80;99.90;;;;;;1884823;75;21138;-77
2022/07/25 06:24:44;;;;;;;6.22;5.53;;;25.80;99.90;;;;;;1914427;75;21040;-77
2022/07/25 06:27:37;;;;;;;6.33;5.45;;;25.80;99.90;;;;;;1895492;75;21136;-76
2022/07/25 06:30:28;;;;;;;6.50;5.92;;;25.90;99.90;;;;;;1893102;73;21698;-77
2022/07/25 06:33:19;;;;;;;5.83;5.17;;;26.00;99.90;;;;;;1898233;75;21103;-77
2022/07/25 06:36:11;;;;;;;6.58;5.70;;;26.00;99.90;;;;;;1888316;73;21107;-76
2022/07/25 06:39:02;;;;;;;5.87;5.28;;;26.00;99.90;;;;;;1884602;76;21553;-77
2022/07/25 06:41:54;;;;;;;6.28;5.62;;;26.10;99.90;;;;;;1884446;75;21175;-84
2022/07/25 06:44:47;;;;;;;7.35;6.03;;;26.20;99.90;;;;;;1900303;75;21124;-93
2022/07/25 06:47:40;;;;;;;6.10;5.50;;;26.30;99.90;;;;;;1915269;73;21139;-92
2022/07/25 06:50:32;;;;;;;6.10;5.50;;;26.30;99.90;;;;;;1926095;73;21128;-92
2022/07/25 06:53:23;;;;;;;6.62;5.95;;;26.30;99.90;;;;;;1895812;73;21058;-92
2022/07/25 06:56:15;;;;;;;6.22;5.55;;;26.30;99.90;;;;;;1904545;73;21094;-93
2022/07/25 06:59:08;;;;;;;7.17;6.28;;;26.40;99.90;;;;;;1907942;73;21112;-92
2022/07/25 07:01:59;;;;;;;9.05;5.80;;;26.50;99.90;;;;;;1892340;75;21081;-88
2022/07/25 07:04:51;;;;;;;6.40;5.67;;;26.50;99.90;;;;;;1884878;75;21039;-78
2022/07/25 07:07:47;;;;;;;6.67;6.05;;;26.50;99.90;;;;;;1899510;73;21051;-85
2022/07/25 07:10:42;;;;;;;6.78;5.72;;;26.40;99.90;;;;;;1882550;75;21108;-79
2022/07/25 07:13:33;;;;;;;7.35;6.20;;;26.30;99.90;;;;;;1872761;76;21094;-85
2022/07/25 07:16:25;;;;;;;6.30;5.67;;;26.30;99.90;;;;;;1894354;75;21072;-85
2022/07/25 07:19:16;;;;;;;6.65;6.00;;;26.40;99.90;;;;;;1891793;75;21170;-85
2022/07/25 07:22:07;;;;;;;7.72;6.30;;;26.50;99.90;;;;;;1885260;75;21594;-85
2022/07/25 07:24:59;;;;;;;9.43;6.20;;;26.60;99.90;;;;;;1881640;75;21138;-85
2022/07/25 07:27:50;;;;;;;6.83;6.12;;;26.60;99.90;;;;;;1893886;75;21090;-85
2022/07/25 07:30:42;;;;;;;6.17;5.45;;;26.70;99.90;;;;;;1892347;75;21124;-85
2022/07/25 07:33:37;;;;;;;7.65;5.70;;;26.70;99.90;;;;;;1887521;75;21101;-85
2022/07/25 07:36:28;;;;;;;6.42;5.78;;;26.80;99.90;;;;;;1884520;75;21622;-85
2022/07/25 07:39:19;;;;;;;6.83;6.12;;;26.80;99.90;;;;;;1882637;75;21147;-85
2022/07/25 07:42:11;;;;;;;7.90;5.58;;;26.80;99.90;;;;;;1881997;75;21051;-85
2022/07/25 07:45:02;;;;;;;5.85;5.33;;;26.70;99.90;;;;;;1885448;75;21103;-86
2022/07/25 07:47:55;;;;;;;9.45;6.03;;;26.80;99.90;;;;;;1885662;75;21171;-86
2022/07/25 07:50:46;;;;;;;7.58;5.90;;;27.00;99.90;;;;;;1882596;75;21056;-87
2022/07/25 07:56:46;;;;;;;8.88;6.33;;;26.80;99.90;;;;;;1901216;75;21122;-85
2022/07/25 08:02:19;;;;;;;9.18;6.03;;;26.80;99.90;;;;;;1955703;72;22350;-84
2022/07/25 08:05:11;;;;;;;9.38;6.42;;;26.90;99.90;;;;;;1895951;74;21180;-84
2022/07/25 08:08:03;;;;;;;11.15;6.58;;;26.90;99.90;;;;;;1895365;75;21114;-85
2022/07/25 08:10:54;;;;;;;10.18;6.30;;;27.00;99.90;;;;;;1899481;75;21136;-84
2022/07/25 08:13:47;;;;;;;9.15;6.10;;;27.00;99.90;;;;;;1897372;75;21062;-84
2022/07/25 08:16:38;;;;;;;10.15;5.92;;;27.20;99.90;;;;;;1895193;75;21127;-84
2022/07/25 08:19:29;;;;;;;12.05;6.10;;;27.20;99.90;;;;;;1898332;73;21102;-84
2022/07/25 08:22:21;;;;;;;9.20;5.70;;;27.30;99.90;;;;;;1898186;75;21068;-83
2022/07/25 08:25:15;;;;;;;10.58;6.30;;;27.40;99.90;;;;;;1896121;75;21146;-83
2022/07/25 08:28:08;;;;;;;8.55;6.00;;;27.50;99.90;;;;;;1885321;75;21139;-83
2022/07/25 08:31:00;;;;;;;6.90;6.20;;;27.50;99.90;;;;;;1888708;75;21106;-83
2022/07/25 08:33:52;;;;;;;7.28;6.50;;;27.70;99.90;;;;;;1896420;75;21176;-83
2022/07/25 08:36:43;;;;;;;7.67;6.22;;;27.70;99.70;;;;;;1896632;73;21179;-82
2022/07/25 08:39:35;;;;;;;6.87;5.42;;;27.80;99.70;;;;;;1911431;73;21027;-82
2022/07/25 08:42:26;;;;;;;8.55;5.97;;;27.90;99.90;;;;;;1896574;75;21247;-82
2022/07/25 08:45:19;;;;;;;9.00;6.08;;;28.00;99.60;;;;;;1905268;73;21138;-83
2022/07/25 08:48:10;;;;;;;8.18;5.10;;;28.00;99.70;;;;;;1889200;75;21188;-74
2022/07/25 08:51:04;;;;;;;8.35;5.87;;;28.20;99.90;;;;;;1893133;75;21127;-71
2022/07/25 08:53:56;;;;;;;11.63;5.67;;;28.40;99.90;;;;;;1895621;75;21070;-70
2022/07/25 08:56:47;;;;;;;7.72;5.22;;;28.40;99.90;;;;;;1889540;73;21151;-71
2022/07/25 08:59:38;;;;;;;9.60;5.50;;;28.60;99.90;;;;;;1907284;73;21046;-71
2022/07/25 09:02:30;;;;;;;6.72;5.50;;;28.60;99.90;;;;;;1874849;75;21540;-72
2022/07/25 09:05:23;;;;;;;5.87;5.28;;;28.80;99.90;;;;;;1909148;74;21138;-71
2022/07/25 09:08:16;;;;;;;7.25;5.28;;;28.90;99.20;;;;;;1900845;73;21098;-71
2022/07/25 09:11:07;;;;;;;6.40;5.00;;;29.00;99.50;;;;;;1916596;74;21110;-70
2022/07/25 09:14:04;;;;;;;6.47;5.87;;;29.20;99.20;;;;;;1887233;75;21083;-70
2022/07/25 09:16:57;;;;;;;8.78;5.53;;;29.30;99.10;;;;;;1895496;75;21142;-71
2022/07/25 09:19:54;;;;;;;7.78;5.53;;;29.40;99.20;;;;;;1894710;75;21157;-71
2022/07/25 09:22:46;;;;;;;6.50;5.40;;;29.50;98.80;;;;;;1894964;75;21088;-71
2022/07/25 09:25:38;;;;;;;6.92;5.70;;;29.70;98.90;;;;;;1894728;75;21175;-71
2022/07/25 09:28:30;;;;;;;6.45;5.10;;;29.80;98.40;;;;;;1885761;75;21110;-71
2022/07/25 09:31:21;;;;;;;9.48;5.62;;;30.00;97.80;;;;;;1879638;74;21237;-71
2022/07/25 09:34:13;;;;;;;5.70;5.10;;;30.20;97.50;;;;;;1893332;75;21056;-72
2022/07/25 09:37:06;;;;;;;9.98;5.75;;;30.20;96.50;;;;;;1856189;77;21114;-71
2022/07/25 09:39:59;;;;;;;7.97;5.50;;;30.20;96.50;;;;;;1839704;76;21111;-70
2022/07/25 09:42:52;;;;;;;8.13;5.87;;;30.30;96.40;;;;;;1841523;77;21079;-70
2022/07/25 09:45:51;;;;;;;8.35;5.28;;;30.30;96.30;;;;;;1836560;78;21241;-70
2022/07/25 09:48:44;;;;;;;6.17;5.08;;;30.40;96.40;;;;;;1824068;77;21077;-70
2022/07/25 09:51:35;;;;;;;6.62;5.30;;;30.60;95.70;;;;;;1838849;77;21072;-71
2022/07/25 09:54:26;;;;;;;7.97;5.08;;;30.80;95.00;;;;;;1881150;75;21089;-69
2022/07/25 09:57:22;;;;;;;6.37;5.35;;;30.80;94.20;;;;;;1878653;74;21640;-70
2022/07/25 10:00:17;;;;;;;7.42;5.15;;;31.00;94.10;;;;;;1918513;73;22456;-70
2022/07/25 10:03:20;;;;;;;7.03;5.20;;;31.00;93.90;;;;;;1927442;73;21082;-70
2022/07/25 10:08:56;;;;;;;7.03;5.12;;;31.40;92.10;;;;;;1941476;72;22173;-70
2022/07/25 10:12:09;;;;;;;5.60;5.05;;;31.40;92.30;;;;;;1899309;75;21660;-70
2022/07/25 10:15:12;;;;;;;7.30;4.65;;;31.40;92.60;;;;;;1887783;75;21119;-70
2022/07/25 10:18:07;;;;;;;6.85;5.05;;;31.50;91.90;;;;;;1911085;75;21090;-70
2022/07/25 10:21:09;;;;;;;6.42;5.58;;;31.70;91.90;;;;;;1895551;75;21106;-70
2022/07/25 10:24:03;;;;;;;8.33;5.40;;;31.80;92.00;;;;;;1897428;75;21110;-70
2022/07/25 10:26:55;;;;;;;6.65;5.10;;;31.90;91.80;;;;;;1895386;73;21506;-70
2022/07/25 10:29:51;;;;;;;6.37;5.45;;;32.10;91.40;;;;;;1898184;73;21167;-70
2022/07/25 10:32:50;;;;;;;8.08;5.00;;;32.20;90.90;;;;;;1906710;75;21150;-70
2022/07/25 10:35:41;;;;;;;5.33;4.83;;;32.40;90.00;;;;;;1886452;75;21047;-70
2022/07/25 10:38:34;;;;;;;5.50;5.03;;;32.50;87.60;;;;;;1905411;75;21168;-70
2022/07/25 10:41:27;;;;;;;5.58;4.90;;;32.70;86.80;;;;;;1884046;75;21120;-70
2022/07/25 10:44:18;;;;;;;6.22;4.80;;;32.80;83.90;;;;;;1893671;75;21495;-70
2022/07/25 10:47:12;;;;;;;5.40;4.87;;;32.90;84.10;;;;;;1895273;75;21059;-85
2022/07/25 10:50:04;;;;;;;6.00;5.17;;;33.10;81.10;;;;;;1896645;75;21102;-84
2022/07/25 10:53:06;;;;;;;9.63;5.05;;;33.30;81.10;;;;;;1884466;76;21071;-84
2022/07/25 10:55:59;;;;;;;5.25;4.15;;;33.50;81.80;;;;;;1915560;73;21073;-84
2022/07/25 10:58:53;;;;;;;4.83;4.42;;;33.60;76.20;;;;;;1897562;73;21165;-83
2022/07/25 11:01:47;;;;;;;4.45;3.95;;;33.70;75.50;;;;;;1897511;73;21175;-84
2022/07/25 11:04:39;;;;;;;6.80;4.42;;;33.80;74.10;;;;;;1904684;75;21103;-84
2022/07/25 11:07:34;;;;;;;5.95;4.58;;;33.80;72.90;;;;;;1899196;74;21129;-84
2022/07/25 11:13:13;;;;;;;4.90;4.40;;;33.90;71.40;;;;;;1933853;72;22111;-83
2022/07/25 11:16:21;;;;;;;5.25;4.40;;;33.80;70.20;;;;;;1884177;75;21618;-84
2022/07/25 11:19:24;;;;;;;6.50;4.30;;;33.90;71.90;;;;;;1903845;75;21205;-84
2022/07/25 11:22:36;;;;;;;4.97;4.58;;;34.10;71.30;;;;;;1917420;75;21577;-84
2022/07/25 11:28:30;;;;;;;5.35;4.75;;;34.10;72.80;;;;;;1946740;72;22079;-84
2022/07/25 11:34:27;;;;;;;6.15;5.12;;;34.10;73.60;;;;;;1936567;72;27921;-84
2022/07/25 11:37:20;;;;;;;6.92;4.55;;;34.30;75.30;;;;;;1904502;75;21070;-84
2022/07/25 11:40:15;;;;;;;6.37;4.75;;;34.20;74.90;;;;;;1884503;75;21051;-85
2022/07/25 11:43:05;;;;;;;5.70;4.85;;;34.30;74.40;;;;;;1888329;75;21176;-85
2022/07/25 11:46:01;;;;;;;5.35;4.53;;;34.20;73.00;;;;;;1894558;75;21091;-85
2022/07/25 11:48:54;;;;;;;6.47;4.37;;;34.20;74.40;;;;;;1894659;75;21135;-84
2022/07/25 11:51:45;;;;;;;5.15;4.65;;;34.20;69.90;;;;;;1894668;75;21085;-84
2022/07/25 11:54:50;;;;;;;5.83;4.45;;;34.30;69.40;;;;;;1893641;75;21129;-84
2022/07/25 11:57:44;;;;;;;5.12;4.53;;;34.50;67.30;;;;;;1880240;75;21523;-84
2022/07/25 12:00:38;;;;;;;4.80;4.40;;;34.70;66.50;;;;;;1917290;73;21180;-84
2022/07/25 12:03:36;;;;;;;4.78;4.37;;;34.70;65.10;;;;;;1883693;73;21227;-84
2022/07/25 12:10:36;;;;;;;5.83;4.37;;;34.90;64.80;;;;;;1825789;74;21127;-85
2022/07/25 12:13:31;;;;;;;4.55;4.15;;;35.20;64.30;;;;;;1891051;75;21163;-83
2022/07/25 12:16:23;;;;;;;5.25;4.75;;;35.30;64.50;;;;;;1872467;75;21173;-83
2022/07/25 12:19:24;;;;;;;5.60;4.35;;;35.40;64.20;;;;;;1879395;75;21139;-84
2022/07/25 12:22:15;;;;;;;5.20;4.70;;;35.40;64.60;;;;;;1892560;75;21160;-84
2022/07/25 12:25:11;;;;;;;5.10;4.12;;;35.40;64.20;;;;;;1882742;75;21134;-83
2022/07/25 12:28:09;;;;;;;6.83;4.87;;;35.40;63.30;;;;;;1879461;75;21082;-84
2022/07/25 12:31:04;;;;;;;9.15;4.80;;;35.30;64.40;;;;;;1881831;73;21573;-84
2022/07/25 12:33:58;;;;;;;5.40;4.90;;;35.30;64.10;;;;;;1892468;74;21080;-84
2022/07/25 12:36:49;;;;;;;4.70;4.30;;;35.30;64.20;;;;;;1886698;75;21110;-84
2022/07/25 12:39:45;;;;;;;5.30;4.50;;;35.30;62.50;;;;;;1821642;76;21074;-84
2022/07/25 12:42:40;;;;;;;4.92;4.28;;;35.40;61.60;;;;;;1893240;75;21102;-83
2022/07/25 12:45:34;;;;;;;4.58;4.17;;;35.30;61.60;;;;;;1874934;75;21087;-84
2022/07/25 12:51:09;;;;;;;4.62;4.22;;;35.40;61.00;;;;;;1931556;72;22169;-83
2022/07/25 12:54:04;;;;;;;5.28;4.58;;;35.30;61.10;;;;;;1914727;75;21175;-84
2022/07/25 12:56:56;;;;;;;4.53;3.95;;;35.30;60.10;;;;;;1914628;74;21140;-84
2022/07/25 12:59:50;;;;;;;4.78;4.28;;;35.10;59.70;;;;;;1922716;73;21091;-84
2022/07/25 13:02:42;;;;;;;6.37;4.05;;;35.00;59.70;;;;;;1915658;75;21095;-83
2022/07/25 13:05:33;;;;;;;5.58;4.22;;;34.90;59.50;;;;;;1916011;75;21102;-70
2022/07/25 13:08:25;;;;;;;5.78;4.22;;;34.90;59.80;;;;;;1916055;73;21149;-70
2022/07/25 13:11:16;;;;;;;7.15;4.20;;;34.70;59.30;;;;;;1927190;73;21074;-70
2022/07/25 13:14:08;;;;;;;4.30;3.87;;;34.60;59.80;;;;;;1917914;75;21152;-91
2022/07/25 13:17:00;;;;;;;5.20;4.22;;;34.60;59.40;;;;;;1915384;75;21136;-92
2022/07/25 13:19:51;;;;;;;5.25;4.05;;;34.60;59.80;;;;;;1915846;75;21094;-91
2022/07/25 13:22:43;;;;;;;4.80;4.30;;;34.70;59.70;;;;;;1919713;73;21079;-91
2022/07/25 13:25:35;;;;;;;4.53;4.12;;;34.70;59.70;;;;;;1929777;73;21549;-93
2022/07/25 13:28:27;;;;;;;4.50;4.10;;;34.70;59.50;;;;;;1929686;73;21156;-93
2022/07/25 13:31:18;;;;;;;4.78;4.12;;;34.80;59.20;;;;;;1916478;73;21099;-92
2022/07/25 13:34:11;;;;;;;6.37;4.40;;;34.80;59.00;;;;;;1927014;74;21164;-92
2022/07/25 13:41:19;;;;;;;6.28;4.20;;;34.80;59.30;;;;;;1993043;71;22170;-92
2022/07/25 13:44:12;;;;;;;6.00;4.60;;;34.70;60.20;;;;;;1953696;73;21075;-93
2022/07/25 13:47:04;;;;;;;4.97;4.47;;;34.60;60.30;;;;;;2032589;70;21108;-93
2022/07/25 13:49:55;;;;;;;4.78;4.22;;;34.50;60.50;;;;;;2034413;70;21096;-93
2022/07/25 13:52:47;;;;;;;5.50;3.98;;;34.50;60.40;;;;;;2045040;69;21033;-92
2022/07/25 13:55:39;;;;;;;5.25;4.67;;;34.50;60.70;;;;;;2032624;70;21073;-92
2022/07/25 13:58:31;;;;;;;8.18;4.75;;;34.40;61.20;;;;;;2032755;70;21166;-92
2022/07/25 14:01:27;;;;;;;6.95;4.60;;;34.30;62.20;;;;;;2033603;69;21074;-92
2022/07/25 14:04:18;;;;;;;6.28;4.90;;;34.30;62.30;;;;;;2040334;69;21508;-93
2022/07/25 14:07:10;;;;;;;8.70;4.60;;;34.20;62.80;;;;;;2032402;70;21119;-94
2022/07/25 14:10:02;;;;;;;5.97;4.78;;;34.10;63.50;;;;;;2035505;69;21109;-93
2022/07/25 14:12:53;;;;;;;6.03;4.97;;;34.00;64.80;;;;;;2035392;69;21023;-73
2022/07/25 14:15:44;;;;;;;7.80;4.87;;;33.80;66.00;;;;;;2050759;69;21062;-73
2022/07/25 14:18:36;;;;;;;9.28;5.35;;;33.60;67.20;;;;;;2032568;70;21206;-73
2022/07/25 14:21:27;;;;;;;7.12;4.95;;;33.50;66.60;;;;;;2041453;69;21607;-73
2022/07/25 14:24:18;;;;;;;7.97;4.50;;;33.40;67.90;;;;;;2043438;69;21034;-73
2022/07/25 14:27:10;;;;;;;7.58;3.92;;;33.40;65.90;;;;;;2033593;69;21100;-73
2022/07/25 14:30:02;;;;;;;7.80;4.20;;;33.30;66.10;;;;;;2053102;69;21115;-76
2022/07/25 14:32:53;;;;;;;19.87;5.45;;;33.30;67.70;;;;;;2057518;69;21015;-91
2022/07/25 14:35:59;;;;;;;14.00;5.60;;;32.60;74.70;;;;;;2035871;70;21090;-91
2022/07/25 14:39:04;;;;;;;13.25;5.33;;;31.80;80.20;;;;;;2036007;70;21093;-92
2022/07/25 14:42:10;;;;;;;13.58;6.17;;;31.20;84.20;;;;;;2042482;70;21166;-90
2022/07/25 14:45:02;;;;;;;11.48;5.35;;;30.90;86.70;;;;;;2028357;69;21038;-92
2022/07/25 14:47:58;;;;;;;7.08;5.60;;;30.70;91.40;;;;;;2069645;69;21648;-91
2022/07/25 14:50:50;;;;;;;10.23;6.08;;;30.60;93.30;;;;;;2047052;70;21060;-92
2022/07/25 14:53:41;;;;;;;11.03;6.45;;;30.50;98.00;;;;;;2063233;69;21074;-92
2022/07/25 14:56:33;;;;;;;11.00;6.22;;;30.10;99.90;;;;;;2068801;69;21498;-92
2022/07/25 14:59:25;;;;;;;15.93;6.58;;;29.90;99.90;;;;;;2068713;69;21066;-90
2022/07/25 15:02:17;;;;;;;8.88;5.60;;;29.60;99.90;;;;;;2042602;70;21130;-90
2022/07/25 15:05:10;;;;;;;12.25;5.90;;;29.60;99.90;;;;;;2042829;70;21130;-89
2022/07/25 15:08:03;;;;;;;9.43;5.42;;;30.10;99.90;;;;;;1997832;72;21089;-89
2022/07/25 15:10:55;;;;;;;6.83;5.05;;;31.40;99.90;;;;;;1981574;72;21081;-88
2022/07/25 15:13:48;;;;;;;10.70;5.15;;;32.10;99.90;;;;;;1973681;72;21191;-88
2022/07/25 15:16:42;;;;;;;7.60;4.83;;;31.90;99.90;;;;;;1992222;72;21027;-90
2022/07/25 15:19:34;;;;;;;6.90;4.80;;;31.70;99.90;;;;;;1984787;69;21043;-91
2022/07/25 15:22:25;;;;;;;7.33;5.00;;;31.50;99.90;;;;;;1962367;73;21066;-90
2022/07/25 15:25:17;;;;;;;6.50;4.95;;;31.30;99.50;;;;;;1997713;72;21135;-91
2022/07/25 15:28:10;;;;;;;9.33;5.15;;;31.00;99.90;;;;;;2000280;72;21089;-90